Time;durP1;ratioP1;P1;durP2;ratioP2;P2;SDS_P1;SDS_P2;PMS_P1;PMS_P2;Temp;Humidity;BMP_temperature;BMP_pressure;BME280_temperature;BME280_humidity;BME280_pressure;Samples;Min_cycle;Max_cycle;Signal;HPM_P1;HPM_P2
2023/04/01 00:01:47;;;;;;;8.43;7.03;;;9.90;99.90;;;;;;5037258;28;20205;-80
2023/04/01 00:04:15;;;;;;;5.93;5.35;;;10.00;99.90;;;;;;5036600;28;20201;-79
2023/04/01 00:06:42;;;;;;;7.25;6.03;;;10.10;99.90;;;;;;5044511;28;20255;-81
2023/04/01 00:09:09;;;;;;;10.98;7.43;;;10.00;99.90;;;;;;5046516;28;20232;-80
2023/04/01 00:11:36;;;;;;;10.15;6.38;;;9.90;99.90;;;;;;5048728;28;20196;-79
2023/04/01 00:14:03;;;;;;;7.30;5.28;;;10.10;99.90;;;;;;5049376;28;20209;-79
2023/04/01 00:16:30;;;;;;;6.45;5.85;;;10.20;99.90;;;;;;5043852;28;20425;-79
2023/04/01 00:18:57;;;;;;;8.52;7.10;;;10.10;99.90;;;;;;5036598;28;20209;-80
2023/04/01 00:21:25;;;;;;;8.55;7.53;;;10.00;99.90;;;;;;5039501;28;20201;-78
2023/04/01 00:23:51;;;;;;;10.00;7.63;;;9.90;99.90;;;;;;5036973;28;20208;-79
2023/04/01 00:26:20;;;;;;;7.80;7.10;;;9.80;99.90;;;;;;5039582;28;20534;-80
2023/04/01 00:28:49;;;;;;;9.27;7.55;;;9.70;99.90;;;;;;5052096;28;20481;-79
2023/04/01 00:31:16;;;;;;;8.73;7.88;;;9.70;99.90;;;;;;5044345;28;20209;-79
2023/04/01 00:33:44;;;;;;;9.15;8.10;;;9.60;99.90;;;;;;5052107;28;20209;-79
2023/04/01 00:36:14;;;;;;;9.73;8.70;;;9.80;99.90;;;;;;5040736;28;20659;-80
2023/04/01 00:38:42;;;;;;;8.07;7.28;;;9.90;99.90;;;;;;5051807;28;20232;-79
2023/04/01 00:41:14;;;;;;;8.57;7.53;;;9.80;99.90;;;;;;5041369;28;20506;-78
2023/04/01 00:43:47;;;;;;;9.70;8.80;;;10.00;99.90;;;;;;5042710;28;20491;-80
2023/04/01 00:46:14;;;;;;;16.58;9.45;;;9.80;99.90;;;;;;5047080;28;20199;-79
2023/04/01 00:48:46;;;;;;;12.60;8.70;;;9.70;99.90;;;;;;5046524;28;20436;-78
2023/04/01 00:51:20;;;;;;;8.20;7.47;;;9.70;99.90;;;;;;5053268;28;20227;-79
2023/04/01 00:53:50;;;;;;;10.05;9.05;;;9.80;99.90;;;;;;5036858;28;20209;-80
2023/04/01 00:56:22;;;;;;;11.90;9.63;;;9.80;99.90;;;;;;5046201;28;20484;-81
2023/04/01 00:58:57;;;;;;;12.88;10.15;;;10.00;99.90;;;;;;5049923;28;20216;-80
2023/04/01 01:01:24;;;;;;;12.23;9.30;;;10.10;99.90;;;;;;5042263;28;20511;-80
2023/04/01 01:03:52;;;;;;;10.13;9.18;;;10.10;99.90;;;;;;5050145;28;20242;-80
2023/04/01 01:06:46;;;;;;;11.77;7.15;;;10.20;99.90;;;;;;5048394;28;20464;-80
2023/04/01 01:09:32;;;;;;;9.65;8.50;;;10.40;99.90;;;;;;5029819;28;20250;-79
2023/04/01 01:12:30;;;;;;;10.80;9.18;;;10.40;99.90;;;;;;5046066;28;20203;-79
2023/04/01 01:15:09;;;;;;;10.43;8.82;;;10.50;99.90;;;;;;5035889;28;20224;-80
2023/04/01 01:17:54;;;;;;;14.25;9.73;;;10.40;99.90;;;;;;5043157;28;20399;-79
2023/04/01 01:20:42;;;;;;;9.75;8.85;;;10.20;99.90;;;;;;5043704;28;20210;-78
2023/04/01 01:23:42;;;;;;;10.63;9.18;;;10.00;99.90;;;;;;5044197;28;20205;-77
2023/04/01 01:26:34;;;;;;;9.88;8.98;;;10.10;99.90;;;;;;5047305;28;20205;-79
2023/04/01 01:29:42;;;;;;;8.23;7.40;;;10.10;99.90;;;;;;5043936;28;20196;-79
2023/04/01 01:32:36;;;;;;;8.27;7.38;;;10.10;99.90;;;;;;5037797;28;20490;-81
2023/04/01 01:35:42;;;;;;;10.82;8.38;;;10.00;99.90;;;;;;5037124;28;20237;-78
2023/04/01 01:38:14;;;;;;;9.73;7.50;;;10.10;99.90;;;;;;5044657;28;20209;-80
2023/04/01 01:40:44;;;;;;;13.48;8.80;;;10.00;99.90;;;;;;5039798;28;20648;-80
2023/04/01 01:43:16;;;;;;;10.10;8.05;;;10.00;99.90;;;;;;5038228;28;20627;-79
2023/04/01 01:45:48;;;;;;;11.60;8.20;;;10.00;99.90;;;;;;5036690;28;20214;-80
2023/04/01 01:48:16;;;;;;;14.40;8.85;;;10.10;99.90;;;;;;5042346;28;20202;-79
2023/04/01 01:50:46;;;;;;;9.25;8.32;;;10.00;99.90;;;;;;5044511;28;20204;-80
2023/04/01 01:53:13;;;;;;;9.55;8.65;;;10.10;99.90;;;;;;5043933;28;20370;-79
2023/04/01 01:55:42;;;;;;;15.30;9.30;;;10.20;99.90;;;;;;5046782;28;20269;-79
2023/04/01 01:58:27;;;;;;;8.93;7.75;;;10.20;99.90;;;;;;5043039;28;20229;-80
2023/04/01 02:01:00;;;;;;;8.90;8.00;;;10.30;99.90;;;;;;5046019;28;20208;-80
2023/04/01 02:03:32;;;;;;;7.63;6.95;;;10.20;99.90;;;;;;5042672;28;20210;-79
2023/04/01 02:06:01;;;;;;;9.75;8.75;;;10.30;99.90;;;;;;5055394;28;20212;-80
2023/04/01 02:08:33;;;;;;;10.05;8.02;;;10.20;99.90;;;;;;5046411;28;20203;-80
2023/04/01 02:11:03;;;;;;;7.85;7.05;;;10.30;99.90;;;;;;5039929;28;20242;-80
2023/04/01 02:13:30;;;;;;;9.52;7.45;;;10.30;99.90;;;;;;5042337;28;20232;-81
2023/04/01 02:16:01;;;;;;;9.63;8.10;;;10.20;99.90;;;;;;5044651;28;20464;-81
2023/04/01 02:18:31;;;;;;;14.63;7.45;;;10.40;99.90;;;;;;5048269;28;20518;-80
2023/04/01 02:21:00;;;;;;;8.07;6.47;;;10.30;99.90;;;;;;5043338;28;20209;-80
2023/04/01 02:23:28;;;;;;;6.97;6.32;;;10.40;99.90;;;;;;5042686;28;20206;-82
2023/04/01 02:25:55;;;;;;;7.53;6.32;;;10.30;99.90;;;;;;5049394;28;20472;-79
2023/04/01 02:28:23;;;;;;;6.88;6.15;;;10.20;99.90;;;;;;5038444;28;20205;-80
2023/04/01 02:30:51;;;;;;;7.85;6.00;;;10.30;99.90;;;;;;5056315;28;20200;-78
2023/04/01 02:33:19;;;;;;;5.70;5.20;;;10.40;99.90;;;;;;5039831;28;20546;-78
2023/04/01 02:35:47;;;;;;;5.43;4.93;;;10.50;99.90;;;;;;5045642;28;20237;-79
2023/04/01 02:38:15;;;;;;;7.93;5.80;;;10.30;99.90;;;;;;5034809;28;20230;-80
2023/04/01 02:40:49;;;;;;;5.50;4.85;;;10.30;99.90;;;;;;5044974;28;20197;-80
2023/04/01 02:43:16;;;;;;;5.55;4.90;;;10.30;99.90;;;;;;5039160;28;20243;-78
2023/04/01 02:45:43;;;;;;;6.70;4.53;;;10.20;99.90;;;;;;5046465;28;20255;-80
2023/04/01 02:48:10;;;;;;;8.10;4.50;;;10.40;99.90;;;;;;5042128;28;20203;-79
2023/04/01 02:50:37;;;;;;;7.22;4.82;;;10.40;99.90;;;;;;5047647;28;20255;-79
2023/04/01 02:53:06;;;;;;;4.60;4.20;;;10.50;99.90;;;;;;5053490;28;20420;-78
2023/04/01 02:55:34;;;;;;;4.50;4.10;;;10.50;99.90;;;;;;5054534;28;20300;-78
2023/04/01 02:58:01;;;;;;;9.25;5.45;;;10.30;99.90;;;;;;5046376;28;20494;-80
2023/04/01 03:00:29;;;;;;;6.93;4.88;;;10.20;99.90;;;;;;5050524;28;20198;-80
2023/04/01 03:02:56;;;;;;;4.65;3.90;;;10.20;99.90;;;;;;5038975;28;20211;-78
2023/04/01 03:05:24;;;;;;;4.10;3.70;;;10.30;99.90;;;;;;5042492;28;20417;-80
2023/04/01 03:07:51;;;;;;;4.68;4.22;;;10.40;99.90;;;;;;5048415;28;20206;-77
2023/04/01 03:10:18;;;;;;;5.05;4.50;;;10.40;99.90;;;;;;5049970;28;20206;-77
2023/04/01 03:12:45;;;;;;;4.43;3.85;;;10.30;99.90;;;;;;5040464;28;20221;-78
2023/04/01 03:15:14;;;;;;;4.95;4.53;;;10.50;99.90;;;;;;5042497;28;20236;-79
2023/04/01 03:17:42;;;;;;;3.90;3.53;;;10.40;99.90;;;;;;5038266;28;20206;-81
2023/04/01 03:20:10;;;;;;;5.32;3.92;;;10.30;99.90;;;;;;5038185;28;20230;-81
2023/04/01 03:22:38;;;;;;;9.15;3.70;;;10.50;99.90;;;;;;5045867;28;20220;-80
2023/04/01 03:25:10;;;;;;;4.40;4.00;;;10.40;99.90;;;;;;5044190;28;20205;-81
2023/04/01 03:27:37;;;;;;;3.97;3.58;;;10.50;99.90;;;;;;5041069;28;20502;-80
2023/04/01 03:30:05;;;;;;;5.82;3.90;;;10.60;99.90;;;;;;5052247;28;20239;-80
2023/04/01 03:32:33;;;;;;;3.75;3.45;;;10.50;99.90;;;;;;5047757;28;20209;-79
2023/04/01 03:34:59;;;;;;;3.65;3.35;;;10.50;99.90;;;;;;5041144;28;20214;-78
2023/04/01 03:37:27;;;;;;;3.10;2.90;;;10.40;99.90;;;;;;5039093;28;20212;-79
2023/04/01 03:39:54;;;;;;;7.20;5.75;;;10.40;99.90;;;;;;5038747;28;20231;-79
2023/04/01 03:42:21;;;;;;;4.65;3.75;;;10.40;99.90;;;;;;5048630;28;20209;-79
2023/04/01 03:44:48;;;;;;;4.35;3.97;;;10.40;99.90;;;;;;5037185;28;20268;-80
2023/04/01 03:47:15;;;;;;;5.60;5.10;;;10.40;99.90;;;;;;5040564;28;20501;-79
2023/04/01 03:49:42;;;;;;;5.50;4.47;;;10.50;99.90;;;;;;5043118;28;20210;-81
2023/04/01 03:52:10;;;;;;;4.97;4.47;;;10.60;99.90;;;;;;5036784;28;20205;-80
2023/04/01 03:54:37;;;;;;;5.32;4.82;;;10.60;99.90;;;;;;5042774;28;20211;-80
2023/04/01 03:57:04;;;;;;;6.18;5.57;;;10.50;99.90;;;;;;5046191;28;20230;-80
2023/04/01 03:59:31;;;;;;;8.50;7.70;;;10.50;99.90;;;;;;5048825;28;20212;-79
2023/04/01 04:01:58;;;;;;;14.23;10.02;;;10.40;99.90;;;;;;5041592;28;20509;-79
2023/04/01 04:04:26;;;;;;;15.80;12.27;;;10.10;99.90;;;;;;5049186;28;20209;-79
2023/04/01 04:06:53;;;;;;;17.02;15.23;;;10.10;99.90;;;;;;5035947;28;20289;-81
2023/04/01 04:09:20;;;;;;;15.82;13.05;;;10.20;99.90;;;;;;5031034;28;20284;-81
2023/04/01 04:11:48;;;;;;;23.70;17.00;;;10.10;99.90;;;;;;5041248;28;20615;-80
2023/04/01 04:14:15;;;;;;;12.63;10.65;;;10.00;99.90;;;;;;5041450;28;20253;-80
2023/04/01 04:16:42;;;;;;;14.57;12.98;;;9.90;99.90;;;;;;5041358;28;20237;-79
2023/04/01 04:19:09;;;;;;;16.08;11.70;;;9.90;99.90;;;;;;5048535;28;20232;-80
2023/04/01 04:21:37;;;;;;;13.50;10.27;;;9.80;99.90;;;;;;5035524;28;20437;-80
2023/04/01 04:24:04;;;;;;;10.15;9.15;;;9.80;99.90;;;;;;5049135;28;20204;-80
2023/04/01 04:26:30;;;;;;;10.20;8.85;;;9.90;99.90;;;;;;5035921;28;20208;-80
2023/04/01 04:28:58;;;;;;;14.57;8.57;;;9.90;99.90;;;;;;5052692;28;20215;-81
2023/04/01 04:31:26;;;;;;;8.15;6.72;;;10.00;99.90;;;;;;5031656;28;20434;-80
2023/04/01 04:33:53;;;;;;;6.85;6.15;;;9.90;99.90;;;;;;5042349;28;20225;-80
2023/04/01 04:36:21;;;;;;;9.20;8.13;;;9.80;99.90;;;;;;5035636;28;20220;-81
2023/04/01 04:38:48;;;;;;;10.05;7.93;;;9.80;99.90;;;;;;5043152;28;20251;-80
2023/04/01 04:41:17;;;;;;;7.47;6.68;;;9.70;99.90;;;;;;5035621;28;20229;-81
2023/04/01 04:43:55;;;;;;;9.48;7.35;;;9.60;99.90;;;;;;5045322;28;20228;-79
2023/04/01 04:46:23;;;;;;;7.70;7.00;;;9.60;99.90;;;;;;5041649;28;20485;-80
2023/04/01 04:48:50;;;;;;;6.28;5.60;;;9.70;99.90;;;;;;5035903;28;20197;-80
2023/04/01 04:51:19;;;;;;;6.82;5.85;;;9.70;99.90;;;;;;5043589;28;20262;-80
2023/04/01 04:53:46;;;;;;;6.95;5.38;;;9.60;99.90;;;;;;5046186;28;20204;-81
2023/04/01 04:56:19;;;;;;;7.85;4.70;;;9.60;99.90;;;;;;5034924;28;20260;-80
2023/04/01 04:58:47;;;;;;;5.00;4.50;;;9.60;99.90;;;;;;5037423;28;20204;-80
2023/04/01 05:01:15;;;;;;;6.43;4.93;;;9.60;99.90;;;;;;5046653;28;20315;-80
2023/04/01 05:03:43;;;;;;;4.80;4.18;;;9.70;99.90;;;;;;5036078;28;20204;-81
2023/04/01 05:06:12;;;;;;;4.38;3.97;;;9.70;99.90;;;;;;5034557;28;20388;-81
2023/04/01 05:08:40;;;;;;;4.93;3.95;;;9.70;99.90;;;;;;5035583;28;20204;-81
2023/04/01 05:11:11;;;;;;;4.88;4.50;;;9.70;99.90;;;;;;5043430;28;20497;-81
2023/04/01 05:13:40;;;;;;;4.13;3.72;;;9.50;99.90;;;;;;5035125;28;20497;-81
2023/04/01 05:16:11;;;;;;;4.90;4.38;;;9.60;99.90;;;;;;5031443;28;20304;-81
2023/04/01 05:18:39;;;;;;;6.18;4.70;;;9.70;99.90;;;;;;5043747;28;20205;-80
2023/04/01 05:21:08;;;;;;;4.82;3.80;;;9.70;99.90;;;;;;5042924;28;20691;-80
2023/04/01 05:23:36;;;;;;;6.72;5.00;;;9.60;99.90;;;;;;5034841;28;20204;-80
2023/04/01 05:26:09;;;;;;;5.03;4.55;;;9.70;99.90;;;;;;5042726;28;20209;-81
2023/04/01 05:28:35;;;;;;;4.65;4.22;;;9.70;99.90;;;;;;5043203;28;20204;-81
2023/04/01 05:31:03;;;;;;;5.93;5.32;;;9.80;99.90;;;;;;5038171;28;20208;-80
2023/04/01 05:33:31;;;;;;;5.20;4.22;;;9.70;99.90;;;;;;5041053;28;20307;-79
2023/04/01 05:36:06;;;;;;;4.57;4.15;;;9.70;99.90;;;;;;5040207;28;20539;-80
2023/04/01 05:38:33;;;;;;;5.07;4.57;;;9.70;99.90;;;;;;5041692;28;20211;-81
2023/04/01 05:41:02;;;;;;;6.22;4.10;;;9.70;99.90;;;;;;5046363;28;20431;-80
2023/04/01 05:43:29;;;;;;;4.28;3.72;;;10.00;99.90;;;;;;5034983;28;20211;-80
2023/04/01 05:45:57;;;;;;;4.30;3.90;;;10.00;99.90;;;;;;5035882;28;20215;-80
2023/04/01 05:48:24;;;;;;;5.82;4.97;;;9.90;99.90;;;;;;5035287;28;20271;-80
2023/04/01 05:50:51;;;;;;;4.95;4.45;;;10.00;99.90;;;;;;5035381;28;20206;-81
2023/04/01 05:53:19;;;;;;;5.10;4.70;;;10.10;99.90;;;;;;5035309;28;20574;-82
2023/04/01 05:55:46;;;;;;;5.82;4.50;;;10.10;99.90;;;;;;5043361;28;20233;-81
2023/04/01 05:58:13;;;;;;;4.60;3.67;;;10.10;99.90;;;;;;5043389;28;20244;-81
2023/04/01 06:00:40;;;;;;;4.85;4.38;;;10.10;99.90;;;;;;5047398;28;20232;-80
2023/04/01 06:03:06;;;;;;;4.43;4.03;;;10.20;99.90;;;;;;5039965;28;20228;-80
2023/04/01 06:05:44;;;;;;;6.85;4.45;;;10.40;99.90;;;;;;5045761;28;20537;-80
2023/04/01 06:08:17;;;;;;;4.32;3.70;;;10.40;99.90;;;;;;5033709;28;20205;-80
2023/04/01 06:11:19;;;;;;;5.28;4.38;;;10.30;99.90;;;;;;5044789;28;20390;-81
2023/04/01 06:14:07;;;;;;;4.40;3.63;;;10.20;99.90;;;;;;5040276;28;20204;-80
2023/04/01 06:17:00;;;;;;;4.10;3.03;;;10.20;99.90;;;;;;5038791;28;20272;-80
2023/04/01 06:19:50;;;;;;;4.97;3.95;;;10.10;99.90;;;;;;5037693;28;20207;-80
2023/04/01 06:22:42;;;;;;;5.32;4.03;;;10.00;99.90;;;;;;5037621;28;20526;-80
2023/04/01 06:25:31;;;;;;;5.20;4.40;;;10.10;99.90;;;;;;5031856;28;20253;-81
2023/04/01 06:28:05;;;;;;;6.45;4.88;;;10.10;99.90;;;;;;5039054;28;20206;-82
2023/04/01 06:30:43;;;;;;;7.30;3.90;;;10.00;99.90;;;;;;5038571;28;20249;-82
2023/04/01 06:33:46;;;;;;;5.43;4.07;;;10.00;99.90;;;;;;5039367;28;20212;-81
2023/04/01 06:36:31;;;;;;;6.82;6.13;;;10.10;99.90;;;;;;5037459;28;20220;-82
2023/04/01 06:39:26;;;;;;;7.90;5.78;;;10.10;99.90;;;;;;5037670;28;20442;-81
2023/04/01 06:42:25;;;;;;;5.45;4.90;;;10.20;99.90;;;;;;5036480;28;20199;-81
2023/04/01 06:45:20;;;;;;;5.82;5.25;;;10.30;99.90;;;;;;5035946;28;20215;-81
2023/04/01 06:48:31;;;;;;;6.15;4.97;;;10.30;99.90;;;;;;5035645;28;20208;-80
2023/04/01 06:51:21;;;;;;;5.10;4.60;;;10.30;99.90;;;;;;5055800;28;20238;-80
2023/04/01 06:54:20;;;;;;;4.78;4.18;;;10.50;99.90;;;;;;5038133;28;20207;-80
2023/04/01 06:56:55;;;;;;;5.28;4.75;;;10.50;99.90;;;;;;5026870;28;20510;-80
2023/04/01 06:59:27;;;;;;;7.00;4.97;;;10.60;99.90;;;;;;5038410;28;20240;-80
2023/04/01 07:02:09;;;;;;;5.38;4.20;;;10.70;99.90;;;;;;5038188;28;20210;-81
2023/04/01 07:04:44;;;;;;;5.25;4.38;;;10.60;99.90;;;;;;5056099;28;20251;-79
2023/04/01 07:07:23;;;;;;;3.88;3.45;;;10.60;99.90;;;;;;5048884;28;20545;-79
2023/04/01 07:09:58;;;;;;;4.28;3.67;;;10.60;99.90;;;;;;5039983;28;20242;-82
2023/04/01 07:12:36;;;;;;;4.30;3.90;;;10.60;99.90;;;;;;5038858;28;20211;-81
2023/04/01 07:15:28;;;;;;;9.65;3.30;;;10.60;99.90;;;;;;5038265;28;20223;-82
2023/04/01 07:18:16;;;;;;;5.03;4.03;;;10.70;99.90;;;;;;5039437;28;20229;-81
2023/04/01 07:20:45;;;;;;;4.18;3.78;;;10.70;99.90;;;;;;5035770;28;20511;-81
2023/04/01 07:23:24;;;;;;;4.63;3.83;;;10.80;99.90;;;;;;5038590;28;20260;-82
2023/04/01 07:25:58;;;;;;;6.45;3.97;;;10.90;99.90;;;;;;5043952;28;20299;-83
2023/04/01 07:28:35;;;;;;;4.80;3.42;;;11.00;99.90;;;;;;5044627;28;20403;-81
2023/04/01 07:31:09;;;;;;;3.53;3.22;;;11.00;99.90;;;;;;5043505;28;20208;-81
2023/04/01 07:33:59;;;;;;;5.10;4.20;;;11.00;99.90;;;;;;5045448;28;20211;-81
2023/04/01 07:36:44;;;;;;;6.30;3.90;;;11.10;99.90;;;;;;5039650;28;20709;-81
2023/04/01 07:39:43;;;;;;;4.75;3.42;;;11.00;99.90;;;;;;5036735;28;20198;-81
2023/04/01 07:42:24;;;;;;;6.03;3.75;;;11.10;99.90;;;;;;5031204;28;20373;-82
2023/04/01 07:45:06;;;;;;;4.57;3.60;;;11.20;99.90;;;;;;5048463;28;20252;-81
2023/04/01 07:47:55;;;;;;;10.88;5.25;;;11.10;99.90;;;;;;5046876;28;20202;-80
2023/04/01 07:50:34;;;;;;;3.95;3.00;;;11.10;99.90;;;;;;5033223;28;20212;-82
2023/04/01 07:53:43;;;;;;;7.72;3.72;;;11.00;99.90;;;;;;5042056;28;20229;-82
2023/04/01 07:56:30;;;;;;;3.75;2.63;;;11.20;99.90;;;;;;5044117;28;20237;-81
2023/04/01 07:59:02;;;;;;;3.10;2.90;;;11.20;99.90;;;;;;5042634;28;20258;-81
2023/04/01 08:01:50;;;;;;;5.45;3.85;;;11.30;99.90;;;;;;5047288;28;20205;-80
2023/04/01 08:04:36;;;;;;;4.60;2.80;;;11.30;99.90;;;;;;5030188;28;20252;-82
2023/04/01 08:07:03;;;;;;;4.93;3.50;;;11.60;99.90;;;;;;5036374;28;20211;-82
2023/04/01 08:09:47;;;;;;;6.82;3.30;;;12.00;99.90;;;;;;5042513;28;20203;-82
2023/04/01 08:12:20;;;;;;;6.60;4.63;;;12.20;99.90;;;;;;5041394;28;20199;-81
2023/04/01 08:15:06;;;;;;;4.78;3.92;;;12.40;99.90;;;;;;5036971;28;20504;-80
2023/04/01 08:17:45;;;;;;;5.63;3.10;;;12.60;99.90;;;;;;5044430;28;20387;-81
2023/04/01 08:20:36;;;;;;;4.75;2.80;;;12.50;99.90;;;;;;5047848;28;20417;-82
2023/04/01 08:23:09;;;;;;;4.75;3.63;;;12.20;99.90;;;;;;5048929;28;20211;-81
2023/04/01 08:25:42;;;;;;;5.40;3.85;;;12.10;99.90;;;;;;5039851;28;20205;-82
2023/04/01 08:28:39;;;;;;;7.82;3.72;;;12.20;99.90;;;;;;5032342;28;20204;-81
2023/04/01 08:31:18;;;;;;;3.25;3.05;;;12.00;99.90;;;;;;5033124;28;20238;-82
2023/04/01 08:33:47;;;;;;;6.28;3.88;;;12.00;99.90;;;;;;5044863;28;20208;-80
2023/04/01 08:36:20;;;;;;;5.75;4.07;;;11.90;99.90;;;;;;5035118;28;20509;-81
2023/04/01 08:38:51;;;;;;;5.65;3.50;;;12.10;99.90;;;;;;5041559;28;20211;-80
2023/04/01 08:41:47;;;;;;;3.65;3.35;;;12.20;99.90;;;;;;5046539;28;20208;-80
2023/04/01 08:44:49;;;;;;;5.35;4.40;;;12.40;99.90;;;;;;5040684;28;20504;-81
2023/04/01 08:47:34;;;;;;;4.07;3.78;;;12.60;99.90;;;;;;5032596;28;20237;-82
2023/04/01 08:50:39;;;;;;;3.90;3.60;;;12.90;99.90;;;;;;5044229;28;20203;-81
2023/04/01 08:53:30;;;;;;;6.50;4.25;;;12.90;99.90;;;;;;5040879;28;20211;-82
2023/04/01 08:56:20;;;;;;;4.60;3.58;;;12.90;99.90;;;;;;5045035;28;20217;-84
2023/04/01 08:59:06;;;;;;;5.10;4.40;;;13.20;99.90;;;;;;5041205;28;20211;-80
2023/04/01 09:01:45;;;;;;;5.05;3.63;;;13.10;99.90;;;;;;5040051;28;20203;-78
2023/04/01 09:04:34;;;;;;;5.50;3.20;;;13.00;99.90;;;;;;5047469;28;20207;-81
2023/04/01 09:07:15;;;;;;;4.78;3.90;;;13.00;99.90;;;;;;5043883;28;20218;-81
2023/04/01 09:10:07;;;;;;;4.13;3.72;;;13.00;99.90;;;;;;5044885;28;20207;-82
2023/04/01 09:12:52;;;;;;;5.07;4.07;;;13.10;99.90;;;;;;5044258;28;20520;-81
2023/04/01 09:15:53;;;;;;;4.65;3.78;;;13.00;99.90;;;;;;5034024;28;20258;-80
2023/04/01 09:18:56;;;;;;;3.08;2.88;;;13.20;99.90;;;;;;5040300;28;20491;-80
2023/04/01 09:21:51;;;;;;;4.22;3.83;;;13.20;99.90;;;;;;5037829;28;20537;-80
2023/04/01 09:24:56;;;;;;;5.20;3.60;;;13.00;99.90;;;;;;5043551;28;20204;-79
2023/04/01 09:27:30;;;;;;;6.60;4.20;;;13.10;99.90;;;;;;5033242;28;20208;-82
2023/04/01 09:30:14;;;;;;;4.35;3.60;;;13.30;99.90;;;;;;5039801;28;20412;-80
2023/04/01 09:33:32;;;;;;;5.28;4.75;;;13.60;99.90;;;;;;5042500;28;20210;-80
2023/04/01 09:36:23;;;;;;;8.07;3.08;;;14.10;99.90;;;;;;5032234;28;20528;-80
2023/04/01 09:39:26;;;;;;;3.83;3.47;;;14.40;99.90;;;;;;5041562;28;20516;-80
2023/04/01 09:42:41;;;;;;;4.00;3.60;;;14.20;99.90;;;;;;5022526;28;20209;-80
2023/04/01 09:45:35;;;;;;;3.67;3.00;;;14.50;99.90;;;;;;5026866;28;20517;-80
2023/04/01 09:48:01;;;;;;;4.85;3.45;;;15.10;99.90;;;;;;5035773;28;20254;-80
2023/04/01 09:50:50;;;;;;;4.30;3.90;;;15.80;99.90;;;;;;5034664;28;20400;-81
2023/04/01 09:53:49;;;;;;;5.10;3.40;;;15.70;99.90;;;;;;5033825;28;20430;-79
2023/04/01 09:56:39;;;;;;;5.40;3.77;;;16.20;99.90;;;;;;5029360;28;20417;-80
2023/04/01 09:59:32;;;;;;;3.80;3.27;;;16.20;99.90;;;;;;5034727;28;20409;-79
2023/04/01 10:02:21;;;;;;;3.83;3.40;;;16.20;99.90;;;;;;5026025;28;20439;-82
2023/04/01 10:05:10;;;;;;;4.50;3.70;;;16.80;99.90;;;;;;5025655;28;20452;-81
2023/04/01 10:07:50;;;;;;;3.20;2.90;;;16.90;99.90;;;;;;5032162;28;20415;-80
2023/04/01 10:10:32;;;;;;;6.17;3.10;;;16.60;99.90;;;;;;5032514;28;20404;-81
2023/04/01 10:13:27;;;;;;;3.97;3.20;;;16.10;99.90;;;;;;5031365;28;20445;-81
2023/04/01 10:16:00;;;;;;;2.80;2.60;;;16.10;99.90;;;;;;5023879;28;20438;-81
2023/04/01 10:18:36;;;;;;;2.93;2.73;;;16.10;99.90;;;;;;5030474;28;20568;-82
2023/04/01 10:21:17;;;;;;;2.53;2.33;;;15.90;99.90;;;;;;5041649;28;20510;-80
2023/04/01 10:24:08;;;;;;;2.83;2.17;;;15.40;99.90;;;;;;5030344;28;20425;-82
2023/04/01 10:26:53;;;;;;;2.17;2.07;;;15.70;99.90;;;;;;5026274;28;20430;-83
2023/04/01 10:29:33;;;;;;;2.60;2.10;;;15.80;99.90;;;;;;5056387;28;20437;-81
2023/04/01 10:32:11;;;;;;;4.80;3.80;;;15.50;99.90;;;;;;5031516;28;20665;-81
2023/04/01 10:34:54;;;;;;;4.20;2.90;;;15.60;99.90;;;;;;5039997;28;20465;-82
2023/04/01 10:37:27;;;;;;;2.70;2.17;;;15.70;99.90;;;;;;5035503;28;20481;-83
2023/04/01 10:40:00;;;;;;;3.47;2.73;;;15.20;99.90;;;;;;5044874;28;20477;-83
2023/04/01 10:42:41;;;;;;;3.57;3.07;;;14.70;99.90;;;;;;5038926;28;20714;-84
2023/04/01 10:45:20;;;;;;;3.23;3.00;;;14.10;99.90;;;;;;5038058;28;20435;-81
2023/04/01 10:48:09;;;;;;;3.53;3.17;;;13.40;99.90;;;;;;5054279;28;20440;-81
2023/04/01 10:50:39;;;;;;;2.53;1.85;;;12.90;99.90;;;;;;5034237;28;20197;-84
2023/04/01 10:53:39;;;;;;;1.00;0.90;;;12.80;99.90;;;;;;5037168;28;20263;-82
2023/04/01 10:56:11;;;;;;;3.25;1.45;;;12.30;99.90;;;;;;5048925;28;20236;-82
2023/04/01 10:58:57;;;;;;;8.70;2.28;;;11.40;99.90;;;;;;5037888;28;20238;-83
2023/04/01 11:01:32;;;;;;;2.08;1.48;;;11.10;99.90;;;;;;5040401;28;20235;-84
2023/04/01 11:04:17;;;;;;;2.35;1.75;;;11.00;99.90;;;;;;5040765;28;20202;-82
2023/04/01 11:07:26;;;;;;;1.70;1.60;;;11.20;99.90;;;;;;5034077;28;20242;-82
2023/04/01 11:09:56;;;;;;;1.60;1.50;;;11.60;99.90;;;;;;5040647;28;20210;-82
2023/04/01 11:12:32;;;;;;;2.72;2.10;;;11.80;99.90;;;;;;5044307;28;20208;-82
2023/04/01 11:15:40;;;;;;;2.28;2.15;;;12.20;99.90;;;;;;5049889;28;20672;-82
2023/04/01 11:18:26;;;;;;;2.38;2.17;;;12.70;99.90;;;;;;5038599;28;20232;-81
2023/04/01 11:20:55;;;;;;;2.83;2.50;;;13.00;99.90;;;;;;5041864;28;20216;-81
2023/04/01 11:23:41;;;;;;;2.67;2.45;;;12.80;99.90;;;;;;5051575;28;20204;-83
2023/04/01 11:26:11;;;;;;;2.30;2.10;;;12.60;99.90;;;;;;5036075;28;20205;-82
2023/04/01 11:29:12;;;;;;;2.10;2.00;;;12.40;99.90;;;;;;5034066;28;20232;-82
2023/04/01 11:31:54;;;;;;;3.25;2.58;;;12.30;99.90;;;;;;5031559;28;20265;-81
2023/04/01 11:34:32;;;;;;;2.53;2.30;;;12.30;99.90;;;;;;5037374;28;20213;-82
2023/04/01 11:37:27;;;;;;;2.42;2.10;;;12.40;99.90;;;;;;5030640;28;20255;-82
2023/04/01 11:40:33;;;;;;;2.72;2.50;;;12.50;99.90;;;;;;5043469;28;20215;-83
2023/04/01 11:43:19;;;;;;;2.72;2.53;;;12.50;99.90;;;;;;5031685;28;20204;-81
2023/04/01 11:46:08;;;;;;;3.45;2.30;;;12.50;99.90;;;;;;5035916;28;20231;-82
2023/04/01 11:49:07;;;;;;;1.38;1.27;;;12.60;99.90;;;;;;5032267;28;20208;-83
2023/04/01 11:51:53;;;;;;;2.10;2.00;;;12.20;99.90;;;;;;5042206;28;20204;-83
2023/04/01 11:54:38;;;;;;;1.65;1.55;;;12.00;99.90;;;;;;5041285;28;20237;-83
2023/04/01 11:57:23;;;;;;;2.95;2.65;;;12.20;99.90;;;;;;5037371;28;20273;-82
2023/04/01 12:00:14;;;;;;;2.95;2.63;;;12.20;99.90;;;;;;5040132;28;20231;-82
2023/04/01 12:03:18;;;;;;;3.25;3.00;;;12.30;99.90;;;;;;5032580;28;20440;-82
2023/04/01 12:05:58;;;;;;;2.55;2.00;;;12.00;99.90;;;;;;5032573;28;20255;-82
2023/04/01 12:08:29;;;;;;;1.35;1.25;;;11.90;99.90;;;;;;5036429;28;20353;-82
2023/04/01 12:11:15;;;;;;;3.50;1.30;;;11.70;99.90;;;;;;5037544;28;20487;-82
2023/04/01 12:13:48;;;;;;;1.42;1.35;;;11.50;99.90;;;;;;5035608;28;20458;-83
2023/04/01 12:16:24;;;;;;;1.85;1.75;;;11.30;99.90;;;;;;5034217;28;20245;-84
2023/04/01 12:19:08;;;;;;;1.92;1.73;;;11.30;99.90;;;;;;5031267;28;20413;-83
2023/04/01 12:21:52;;;;;;;2.10;1.90;;;11.40;99.90;;;;;;5040625;28;20277;-84
2023/04/01 12:24:54;;;;;;;2.95;2.45;;;11.90;99.90;;;;;;5039850;28;20208;-83
2023/04/01 12:27:38;;;;;;;1.80;1.70;;;12.30;99.90;;;;;;5022400;28;20267;-83
2023/04/01 12:30:35;;;;;;;3.85;2.50;;;12.60;99.90;;;;;;5034557;28;20719;-83
2023/04/01 12:33:41;;;;;;;1.67;1.40;;;12.70;99.90;;;;;;5034937;28;20200;-82
2023/04/01 12:36:31;;;;;;;2.17;1.98;;;12.60;99.90;;;;;;5037060;28;20227;-84
2023/04/01 12:39:31;;;;;;;1.90;1.80;;;12.60;99.90;;;;;;5050252;28;20220;-83
2023/04/01 12:42:19;;;;;;;1.95;1.63;;;12.60;99.90;;;;;;5032022;28;20444;-84
2023/04/01 12:45:05;;;;;;;2.15;1.95;;;12.60;99.90;;;;;;5028865;28;20507;-82
2023/04/01 12:47:41;;;;;;;1.50;1.40;;;12.60;99.90;;;;;;5038220;28;20204;-83
2023/04/01 12:50:25;;;;;;;1.52;1.42;;;12.60;99.90;;;;;;5037087;28;20204;-83
2023/04/01 12:53:36;;;;;;;1.60;1.50;;;12.60;99.90;;;;;;5047789;28;20253;-83
2023/04/01 12:56:07;;;;;;;2.88;2.63;;;12.70;99.90;;;;;;5050744;28;20552;-82
2023/04/01 12:58:59;;;;;;;2.15;1.95;;;12.70;99.90;;;;;;5047299;28;20589;-82
2023/04/01 13:01:52;;;;;;;1.80;1.70;;;12.70;99.90;;;;;;5025752;28;20257;-83
2023/04/01 13:04:44;;;;;;;7.82;2.40;;;12.80;99.90;;;;;;5043419;28;20199;-83
2023/04/01 13:07:26;;;;;;;3.65;3.17;;;13.00;99.90;;;;;;5040274;28;20509;-84
2023/04/01 13:10:32;;;;;;;3.15;2.42;;;13.00;99.90;;;;;;5043077;28;20212;-83
2023/04/01 13:13:23;;;;;;;3.28;2.38;;;13.00;99.90;;;;;;5054721;28;20228;-82
2023/04/01 13:16:01;;;;;;;2.45;2.25;;;13.10;99.90;;;;;;5040574;28;20196;-83
2023/04/01 13:18:43;;;;;;;4.80;2.65;;;13.10;99.90;;;;;;5041067;28;20419;-81
2023/04/01 13:21:43;;;;;;;4.07;3.72;;;13.20;99.90;;;;;;5043594;28;20222;-83
2023/04/01 13:24:38;;;;;;;2.67;2.47;;;13.30;99.90;;;;;;5037559;28;20216;-84
2023/04/01 13:27:14;;;;;;;3.42;2.90;;;13.10;99.90;;;;;;5055087;28;20492;-83
2023/04/01 13:30:02;;;;;;;8.82;4.30;;;13.20;99.90;;;;;;5043372;28;20253;-84
2023/04/01 13:32:45;;;;;;;7.05;3.88;;;13.40;99.90;;;;;;5036643;28;20204;-82
2023/04/01 13:35:36;;;;;;;6.18;4.97;;;13.60;99.90;;;;;;5032057;28;20214;-82
2023/04/01 13:38:37;;;;;;;7.13;5.57;;;13.90;99.90;;;;;;5050255;28;20602;-82
2023/04/01 13:41:38;;;;;;;6.13;5.53;;;13.90;99.90;;;;;;5049593;28;20205;-82
2023/04/01 13:44:17;;;;;;;4.30;3.90;;;14.20;99.90;;;;;;5044164;28;20249;-81
2023/04/01 13:47:12;;;;;;;9.13;4.18;;;13.80;99.90;;;;;;5049453;28;20383;-83
2023/04/01 13:49:48;;;;;;;3.13;2.90;;;13.50;99.90;;;;;;5041866;28;20200;-82